sensor_id;sensor_type;location;lat;lon;timestamp;P1;durP1;ratioP1;P2;durP2;ratioP2
22904;SDS011;11619;50.140;8.518;2023-08-24T00:01:07;3.60;;;2.30;;
22904;SDS011;11619;50.140;8.518;2023-08-24T00:03:39;5.78;;;2.22;;
22904;SDS011;11619;50.140;8.518;2023-08-24T00:06:06;3.22;;;2.00;;
22904;SDS011;11619;50.140;8.518;2023-08-24T00:08:32;4.38;;;2.35;;
22904;SDS011;11619;50.140;8.518;2023-08-24T00:10:59;3.55;;;2.35;;
22904;SDS011;11619;50.140;8.518;2023-08-24T00:13:26;3.33;;;2.28;;
22904;SDS011;11619;50.140;8.518;2023-08-24T00:15:53;4.63;;;2.30;;
22904;SDS011;11619;50.140;8.518;2023-08-24T00:18:20;2.47;;;1.98;;
22904;SDS011;11619;50.140;8.518;2023-08-24T00:20:49;5.28;;;2.33;;
22904;SDS011;11619;50.140;8.518;2023-08-24T00:23:16;3.25;;;2.28;;
22904;SDS011;11619;50.140;8.518;2023-08-24T00:25:43;3.88;;;2.40;;
22904;SDS011;11619;50.140;8.518;2023-08-24T00:28:09;4.00;;;2.55;;
22904;SDS011;11619;50.140;8.518;2023-08-24T00:30:36;3.42;;;2.38;;
22904;SDS011;11619;50.140;8.518;2023-08-24T00:33:03;3.33;;;2.45;;
22904;SDS011;11619;50.140;8.518;2023-08-24T00:35:30;6.07;;;2.75;;
22904;SDS011;11619;50.140;8.518;2023-08-24T00:37:57;3.65;;;2.20;;
22904;SDS011;11619;50.140;8.518;2023-08-24T00:40:23;2.63;;;2.17;;
22904;SDS011;11619;50.140;8.518;2023-08-24T00:42:51;2.53;;;2.33;;
22904;SDS011;11619;50.140;8.518;2023-08-24T00:45:17;2.85;;;2.10;;
22904;SDS011;11619;50.140;8.518;2023-08-24T00:47:45;2.83;;;2.25;;
22904;SDS011;11619;50.140;8.518;2023-08-24T00:50:13;2.83;;;2.60;;
22904;SDS011;11619;50.140;8.518;2023-08-24T00:52:41;3.03;;;2.22;;
22904;SDS011;11619;50.140;8.518;2023-08-24T00:55:08;4.20;;;2.67;;
22904;SDS011;11619;50.140;8.518;2023-08-24T00:57:35;7.07;;;2.53;;
22904;SDS011;11619;50.140;8.518;2023-08-24T01:00:03;3.90;;;2.08;;
22904;SDS011;11619;50.140;8.518;2023-08-24T01:02:38;3.67;;;2.42;;
22904;SDS011;11619;50.140;8.518;2023-08-24T01:05:05;4.95;;;2.97;;
22904;SDS011;11619;50.140;8.518;2023-08-24T01:07:32;3.08;;;2.30;;
22904;SDS011;11619;50.140;8.518;2023-08-24T01:10:02;5.90;;;2.38;;
22904;SDS011;11619;50.140;8.518;2023-08-24T01:12:43;3.08;;;2.38;;
22904;SDS011;11619;50.140;8.518;2023-08-24T01:15:47;4.85;;;2.47;;
22904;SDS011;11619;50.140;8.518;2023-08-24T01:18:22;4.25;;;2.55;;
22904;SDS011;11619;50.140;8.518;2023-08-24T01:20:52;5.95;;;2.35;;
22904;SDS011;11619;50.140;8.518;2023-08-24T01:26:20;4.72;;;2.33;;
22904;SDS011;11619;50.140;8.518;2023-08-24T01:28:47;5.35;;;2.47;;
22904;SDS011;11619;50.140;8.518;2023-08-24T01:31:14;3.70;;;2.50;;
22904;SDS011;11619;50.140;8.518;2023-08-24T01:33:42;5.18;;;2.60;;
22904;SDS011;11619;50.140;8.518;2023-08-24T01:36:12;4.72;;;2.67;;
22904;SDS011;11619;50.140;8.518;2023-08-24T01:38:39;3.67;;;2.33;;
22904;SDS011;11619;50.140;8.518;2023-08-24T01:41:09;2.78;;;2.13;;
22904;SDS011;11619;50.140;8.518;2023-08-24T01:43:39;3.38;;;2.40;;
22904;SDS011;11619;50.140;8.518;2023-08-24T01:46:10;3.55;;;2.28;;
22904;SDS011;11619;50.140;8.518;2023-08-24T01:48:39;2.63;;;2.20;;
22904;SDS011;11619;50.140;8.518;2023-08-24T01:51:06;3.55;;;2.22;;
22904;SDS011;11619;50.140;8.518;2023-08-24T01:53:32;4.85;;;2.20;;
22904;SDS011;11619;50.140;8.518;2023-08-24T01:55:59;3.30;;;2.10;;
22904;SDS011;11619;50.140;8.518;2023-08-24T01:58:26;2.00;;;1.80;;
22904;SDS011;11619;50.140;8.518;2023-08-24T02:00:52;4.30;;;2.42;;
22904;SDS011;11619;50.140;8.518;2023-08-24T02:03:19;6.18;;;2.67;;
22904;SDS011;11619;50.140;8.518;2023-08-24T02:05:54;3.20;;;2.30;;
22904;SDS011;11619;50.140;8.518;2023-08-24T02:08:21;6.50;;;3.00;;
22904;SDS011;11619;50.140;8.518;2023-08-24T02:10:47;5.00;;;2.35;;
22904;SDS011;11619;50.140;8.518;2023-08-24T02:13:14;4.38;;;2.15;;
22904;SDS011;11619;50.140;8.518;2023-08-24T02:15:40;4.82;;;2.33;;
22904;SDS011;11619;50.140;8.518;2023-08-24T02:18:07;2.35;;;2.15;;
22904;SDS011;11619;50.140;8.518;2023-08-24T02:20:37;4.25;;;2.38;;
22904;SDS011;11619;50.140;8.518;2023-08-24T02:23:04;3.40;;;2.45;;
22904;SDS011;11619;50.140;8.518;2023-08-24T02:25:30;5.68;;;2.33;;
22904;SDS011;11619;50.140;8.518;2023-08-24T02:27:57;3.35;;;2.35;;
22904;SDS011;11619;50.140;8.518;2023-08-24T02:30:23;3.50;;;2.30;;
22904;SDS011;11619;50.140;8.518;2023-08-24T02:32:50;4.60;;;2.50;;
22904;SDS011;11619;50.140;8.518;2023-08-24T02:35:17;5.55;;;2.38;;
22904;SDS011;11619;50.140;8.518;2023-08-24T02:37:44;3.42;;;2.35;;
22904;SDS011;11619;50.140;8.518;2023-08-24T02:40:10;4.55;;;2.40;;
22904;SDS011;11619;50.140;8.518;2023-08-24T02:42:37;3.40;;;2.30;;
22904;SDS011;11619;50.140;8.518;2023-08-24T02:45:04;4.00;;;2.33;;
22904;SDS011;11619;50.140;8.518;2023-08-24T02:47:30;10.40;;;2.80;;
22904;SDS011;11619;50.140;8.518;2023-08-24T02:49:57;4.35;;;2.55;;
22904;SDS011;11619;50.140;8.518;2023-08-24T02:52:24;4.57;;;2.42;;
22904;SDS011;11619;50.140;8.518;2023-08-24T02:54:50;4.70;;;2.60;;
22904;SDS011;11619;50.140;8.518;2023-08-24T02:57:16;3.35;;;2.38;;
22904;SDS011;11619;50.140;8.518;2023-08-24T02:59:43;4.15;;;2.58;;
22904;SDS011;11619;50.140;8.518;2023-08-24T03:02:10;3.03;;;2.65;;
22904;SDS011;11619;50.140;8.518;2023-08-24T03:04:37;4.28;;;2.70;;
22904;SDS011;11619;50.140;8.518;2023-08-24T03:07:03;4.57;;;2.58;;
22904;SDS011;11619;50.140;8.518;2023-08-24T03:09:29;5.13;;;2.30;;
22904;SDS011;11619;50.140;8.518;2023-08-24T03:11:56;5.35;;;2.70;;
22904;SDS011;11619;50.140;8.518;2023-08-24T03:14:22;4.10;;;2.65;;
22904;SDS011;11619;50.140;8.518;2023-08-24T03:16:49;3.40;;;2.65;;
22904;SDS011;11619;50.140;8.518;2023-08-24T03:19:16;3.05;;;2.75;;
22904;SDS011;11619;50.140;8.518;2023-08-24T03:21:44;5.07;;;2.60;;
22904;SDS011;11619;50.140;8.518;2023-08-24T03:24:11;5.30;;;2.38;;
22904;SDS011;11619;50.140;8.518;2023-08-24T03:26:37;5.18;;;3.05;;
22904;SDS011;11619;50.140;8.518;2023-08-24T03:29:03;5.28;;;2.92;;
22904;SDS011;11619;50.140;8.518;2023-08-24T03:31:30;3.90;;;2.65;;
22904;SDS011;11619;50.140;8.518;2023-08-24T03:33:56;3.90;;;3.13;;
22904;SDS011;11619;50.140;8.518;2023-08-24T03:36:23;4.03;;;2.60;;
22904;SDS011;11619;50.140;8.518;2023-08-24T03:38:49;5.05;;;2.90;;
22904;SDS011;11619;50.140;8.518;2023-08-24T03:41:18;9.48;;;2.67;;
22904;SDS011;11619;50.140;8.518;2023-08-24T03:43:44;2.75;;;2.53;;
22904;SDS011;11619;50.140;8.518;2023-08-24T03:46:10;3.35;;;2.58;;
22904;SDS011;11619;50.140;8.518;2023-08-24T03:48:37;5.35;;;2.85;;
22904;SDS011;11619;50.140;8.518;2023-08-24T03:51:03;5.65;;;2.80;;
22904;SDS011;11619;50.140;8.518;2023-08-24T03:53:30;3.00;;;2.50;;
22904;SDS011;11619;50.140;8.518;2023-08-24T03:55:56;3.20;;;2.75;;
22904;SDS011;11619;50.140;8.518;2023-08-24T03:58:23;7.32;;;2.72;;
22904;SDS011;11619;50.140;8.518;2023-08-24T04:00:50;5.38;;;2.65;;
22904;SDS011;11619;50.140;8.518;2023-08-24T04:03:16;4.20;;;2.47;;
22904;SDS011;11619;50.140;8.518;2023-08-24T04:05:43;3.65;;;2.28;;
22904;SDS011;11619;50.140;8.518;2023-08-24T04:08:09;6.00;;;2.58;;
22904;SDS011;11619;50.140;8.518;2023-08-24T04:10:37;5.47;;;2.97;;
22904;SDS011;11619;50.140;8.518;2023-08-24T04:13:03;5.32;;;2.28;;
22904;SDS011;11619;50.140;8.518;2023-08-24T04:15:30;2.47;;;2.28;;
22904;SDS011;11619;50.140;8.518;2023-08-24T04:17:56;4.25;;;2.60;;
22904;SDS011;11619;50.140;8.518;2023-08-24T04:20:23;5.32;;;2.50;;
22904;SDS011;11619;50.140;8.518;2023-08-24T04:22:49;3.03;;;2.60;;
22904;SDS011;11619;50.140;8.518;2023-08-24T04:25:16;4.20;;;2.65;;
22904;SDS011;11619;50.140;8.518;2023-08-24T04:27:42;3.47;;;2.70;;
22904;SDS011;11619;50.140;8.518;2023-08-24T04:30:09;3.45;;;2.72;;
22904;SDS011;11619;50.140;8.518;2023-08-24T04:32:38;6.85;;;2.55;;
22904;SDS011;11619;50.140;8.518;2023-08-24T04:35:05;3.85;;;2.92;;
22904;SDS011;11619;50.140;8.518;2023-08-24T04:37:31;5.30;;;2.90;;
22904;SDS011;11619;50.140;8.518;2023-08-24T04:39:58;2.75;;;2.55;;
22904;SDS011;11619;50.140;8.518;2023-08-24T04:42:24;5.75;;;2.92;;
22904;SDS011;11619;50.140;8.518;2023-08-24T04:44:51;2.97;;;2.67;;
22904;SDS011;11619;50.140;8.518;2023-08-24T04:47:18;3.70;;;2.60;;
22904;SDS011;11619;50.140;8.518;2023-08-24T04:49:44;6.50;;;3.33;;
22904;SDS011;11619;50.140;8.518;2023-08-24T04:52:10;6.85;;;3.60;;
22904;SDS011;11619;50.140;8.518;2023-08-24T04:54:37;6.93;;;3.20;;
22904;SDS011;11619;50.140;8.518;2023-08-24T04:57:03;4.80;;;2.90;;
22904;SDS011;11619;50.140;8.518;2023-08-24T04:59:30;7.55;;;3.10;;
22904;SDS011;11619;50.140;8.518;2023-08-24T05:01:56;5.22;;;3.08;;
22904;SDS011;11619;50.140;8.518;2023-08-24T05:04:23;3.97;;;2.78;;
22904;SDS011;11619;50.140;8.518;2023-08-24T05:06:49;4.38;;;3.03;;
22904;SDS011;11619;50.140;8.518;2023-08-24T05:09:16;4.25;;;2.60;;
22904;SDS011;11619;50.140;8.518;2023-08-24T05:11:43;6.15;;;2.53;;
22904;SDS011;11619;50.140;8.518;2023-08-24T05:14:09;4.47;;;2.78;;
22904;SDS011;11619;50.140;8.518;2023-08-24T05:16:36;3.45;;;2.20;;
22904;SDS011;11619;50.140;8.518;2023-08-24T05:19:02;3.60;;;2.30;;
22904;SDS011;11619;50.140;8.518;2023-08-24T05:21:29;3.72;;;2.55;;
22904;SDS011;11619;50.140;8.518;2023-08-24T05:23:55;2.20;;;2.00;;
22904;SDS011;11619;50.140;8.518;2023-08-24T05:26:22;4.50;;;2.50;;
22904;SDS011;11619;50.140;8.518;2023-08-24T05:28:49;8.82;;;2.85;;
22904;SDS011;11619;50.140;8.518;2023-08-24T05:31:15;4.57;;;2.70;;
22904;SDS011;11619;50.140;8.518;2023-08-24T05:33:46;4.50;;;2.83;;
22904;SDS011;11619;50.140;8.518;2023-08-24T05:36:12;4.97;;;2.47;;
22904;SDS011;11619;50.140;8.518;2023-08-24T05:38:39;2.53;;;2.30;;
22904;SDS011;11619;50.140;8.518;2023-08-24T05:41:29;4.65;;;2.63;;
22904;SDS011;11619;50.140;8.518;2023-08-24T05:43:55;3.17;;;2.28;;
22904;SDS011;11619;50.140;8.518;2023-08-24T05:46:23;2.78;;;2.35;;
22904;SDS011;11619;50.140;8.518;2023-08-24T05:48:49;5.28;;;2.58;;
22904;SDS011;11619;50.140;8.518;2023-08-24T05:51:16;4.63;;;2.85;;
22904;SDS011;11619;50.140;8.518;2023-08-24T05:53:42;4.50;;;3.08;;
22904;SDS011;11619;50.140;8.518;2023-08-24T05:56:09;6.90;;;2.90;;
22904;SDS011;11619;50.140;8.518;2023-08-24T05:58:35;6.10;;;3.33;;
22904;SDS011;11619;50.140;8.518;2023-08-24T06:01:02;7.18;;;3.13;;
22904;SDS011;11619;50.140;8.518;2023-08-24T06:03:28;2.75;;;2.47;;
22904;SDS011;11619;50.140;8.518;2023-08-24T06:06:00;4.88;;;2.55;;
22904;SDS011;11619;50.140;8.518;2023-08-24T06:08:28;3.50;;;2.70;;
22904;SDS011;11619;50.140;8.518;2023-08-24T06:10:54;2.67;;;2.30;;
22904;SDS011;11619;50.140;8.518;2023-08-24T06:13:21;6.90;;;2.88;;
22904;SDS011;11619;50.140;8.518;2023-08-24T06:15:47;4.75;;;2.92;;
22904;SDS011;11619;50.140;8.518;2023-08-24T06:18:14;9.25;;;3.67;;
22904;SDS011;11619;50.140;8.518;2023-08-24T06:20:40;13.05;;;3.25;;
22904;SDS011;11619;50.140;8.518;2023-08-24T06:23:07;8.23;;;3.67;;
22904;SDS011;11619;50.140;8.518;2023-08-24T06:25:34;6.78;;;3.08;;
22904;SDS011;11619;50.140;8.518;2023-08-24T06:28:01;6.72;;;2.50;;
22904;SDS011;11619;50.140;8.518;2023-08-24T06:30:30;5.68;;;2.83;;
22904;SDS011;11619;50.140;8.518;2023-08-24T06:33:03;4.28;;;3.00;;
22904;SDS011;11619;50.140;8.518;2023-08-24T06:35:30;4.75;;;3.00;;
22904;SDS011;11619;50.140;8.518;2023-08-24T06:37:56;4.20;;;3.38;;
22904;SDS011;11619;50.140;8.518;2023-08-24T06:40:22;6.53;;;3.35;;
22904;SDS011;11619;50.140;8.518;2023-08-24T06:42:49;6.82;;;2.90;;
22904;SDS011;11619;50.140;8.518;2023-08-24T06:45:15;5.05;;;3.00;;
22904;SDS011;11619;50.140;8.518;2023-08-24T06:47:44;8.43;;;3.45;;
22904;SDS011;11619;50.140;8.518;2023-08-24T06:50:11;5.18;;;3.10;;
22904;SDS011;11619;50.140;8.518;2023-08-24T06:52:37;5.20;;;3.40;;
22904;SDS011;11619;50.140;8.518;2023-08-24T06:55:04;6.43;;;3.50;;
22904;SDS011;11619;50.140;8.518;2023-08-24T06:57:31;3.53;;;2.88;;
22904;SDS011;11619;50.140;8.518;2023-08-24T06:59:57;3.08;;;2.80;;
22904;SDS011;11619;50.140;8.518;2023-08-24T07:02:24;4.63;;;2.95;;
22904;SDS011;11619;50.140;8.518;2023-08-24T07:04:50;6.90;;;3.13;;
22904;SDS011;11619;50.140;8.518;2023-08-24T07:07:17;3.70;;;3.28;;
22904;SDS011;11619;50.140;8.518;2023-08-24T07:09:43;3.40;;;2.95;;
22904;SDS011;11619;50.140;8.518;2023-08-24T07:12:09;3.50;;;2.90;;
22904;SDS011;11619;50.140;8.518;2023-08-24T07:14:36;4.93;;;3.03;;
22904;SDS011;11619;50.140;8.518;2023-08-24T07:17:03;3.75;;;2.88;;
22904;SDS011;11619;50.140;8.518;2023-08-24T07:19:29;3.85;;;3.20;;
22904;SDS011;11619;50.140;8.518;2023-08-24T07:21:55;3.53;;;3.22;;
22904;SDS011;11619;50.140;8.518;2023-08-24T07:24:22;5.95;;;3.00;;
22904;SDS011;11619;50.140;8.518;2023-08-24T07:27:10;4.88;;;3.50;;
22904;SDS011;11619;50.140;8.518;2023-08-24T07:29:36;5.50;;;3.15;;
22904;SDS011;11619;50.140;8.518;2023-08-24T07:32:03;6.47;;;3.22;;
22904;SDS011;11619;50.140;8.518;2023-08-24T07:34:29;3.92;;;3.17;;
22904;SDS011;11619;50.140;8.518;2023-08-24T07:36:56;7.13;;;3.65;;
22904;SDS011;11619;50.140;8.518;2023-08-24T07:39:22;5.28;;;3.40;;
22904;SDS011;11619;50.140;8.518;2023-08-24T07:41:49;9.63;;;3.83;;
22904;SDS011;11619;50.140;8.518;2023-08-24T07:44:15;7.50;;;3.75;;
22904;SDS011;11619;50.140;8.518;2023-08-24T07:46:42;4.18;;;3.45;;
22904;SDS011;11619;50.140;8.518;2023-08-24T07:49:08;6.45;;;3.47;;
22904;SDS011;11619;50.140;8.518;2023-08-24T07:51:35;5.18;;;3.50;;
22904;SDS011;11619;50.140;8.518;2023-08-24T07:54:02;7.20;;;3.90;;
22904;SDS011;11619;50.140;8.518;2023-08-24T07:56:30;5.70;;;3.85;;
22904;SDS011;11619;50.140;8.518;2023-08-24T07:58:57;8.40;;;3.95;;
22904;SDS011;11619;50.140;8.518;2023-08-24T08:01:23;6.13;;;3.75;;
22904;SDS011;11619;50.140;8.518;2023-08-24T08:03:50;4.93;;;3.63;;
22904;SDS011;11619;50.140;8.518;2023-08-24T08:06:17;5.28;;;3.63;;
22904;SDS011;11619;50.140;8.518;2023-08-24T08:08:43;6.57;;;4.30;;
22904;SDS011;11619;50.140;8.518;2023-08-24T08:11:11;6.18;;;4.18;;
22904;SDS011;11619;50.140;8.518;2023-08-24T08:13:38;5.88;;;4.20;;
22904;SDS011;11619;50.140;8.518;2023-08-24T08:16:05;5.63;;;4.18;;
22904;SDS011;11619;50.140;8.518;2023-08-24T08:18:32;7.68;;;4.20;;
22904;SDS011;11619;50.140;8.518;2023-08-24T08:20:59;5.78;;;4.00;;
22904;SDS011;11619;50.140;8.518;2023-08-24T08:23:26;10.60;;;4.47;;
22904;SDS011;11619;50.140;8.518;2023-08-24T08:25:54;12.05;;;5.28;;
22904;SDS011;11619;50.140;8.518;2023-08-24T08:28:20;5.45;;;4.85;;
22904;SDS011;11619;50.140;8.518;2023-08-24T08:30:47;5.65;;;4.78;;
22904;SDS011;11619;50.140;8.518;2023-08-24T08:33:15;6.90;;;4.75;;
22904;SDS011;11619;50.140;8.518;2023-08-24T08:35:41;8.80;;;4.63;;
22904;SDS011;11619;50.140;8.518;2023-08-24T08:38:08;6.43;;;5.25;;
22904;SDS011;11619;50.140;8.518;2023-08-24T08:40:38;5.70;;;4.50;;
22904;SDS011;11619;50.140;8.518;2023-08-24T08:43:04;5.18;;;4.53;;
22904;SDS011;11619;50.140;8.518;2023-08-24T08:45:31;5.35;;;3.97;;
22904;SDS011;11619;50.140;8.518;2023-08-24T08:47:58;6.93;;;4.35;;
22904;SDS011;11619;50.140;8.518;2023-08-24T08:50:25;5.50;;;4.22;;
22904;SDS011;11619;50.140;8.518;2023-08-24T08:52:55;4.43;;;3.30;;
22904;SDS011;11619;50.140;8.518;2023-08-24T08:55:22;6.85;;;4.38;;
22904;SDS011;11619;50.140;8.518;2023-08-24T08:57:48;5.50;;;3.88;;
22904;SDS011;11619;50.140;8.518;2023-08-24T09:00:15;5.20;;;3.60;;
22904;SDS011;11619;50.140;8.518;2023-08-24T09:02:43;3.55;;;3.25;;
22904;SDS011;11619;50.140;8.518;2023-08-24T09:05:14;5.70;;;3.58;;
22904;SDS011;11619;50.140;8.518;2023-08-24T09:07:41;3.95;;;3.33;;
22904;SDS011;11619;50.140;8.518;2023-08-24T09:10:08;5.35;;;3.00;;
22904;SDS011;11619;50.140;8.518;2023-08-24T09:12:34;7.68;;;3.72;;
22904;SDS011;11619;50.140;8.518;2023-08-24T09:15:04;5.68;;;3.30;;
22904;SDS011;11619;50.140;8.518;2023-08-24T09:17:34;6.00;;;2.85;;
22904;SDS011;11619;50.140;8.518;2023-08-24T09:20:06;4.15;;;2.67;;
22904;SDS011;11619;50.140;8.518;2023-08-24T09:22:37;3.08;;;2.55;;
22904;SDS011;11619;50.140;8.518;2023-08-24T09:25:05;3.55;;;2.67;;
22904;SDS011;11619;50.140;8.518;2023-08-24T09:27:32;4.50;;;2.72;;
22904;SDS011;11619;50.140;8.518;2023-08-24T09:30:00;5.20;;;2.85;;
22904;SDS011;11619;50.140;8.518;2023-08-24T09:32:27;10.30;;;2.80;;
22904;SDS011;11619;50.140;8.518;2023-08-24T09:34:55;2.67;;;2.47;;
22904;SDS011;11619;50.140;8.518;2023-08-24T09:37:21;4.28;;;2.25;;
22904;SDS011;11619;50.140;8.518;2023-08-24T09:39:48;3.47;;;2.40;;
22904;SDS011;11619;50.140;8.518;2023-08-24T09:42:14;3.08;;;2.70;;
22904;SDS011;11619;50.140;8.518;2023-08-24T09:44:44;4.78;;;2.88;;
22904;SDS011;11619;50.140;8.518;2023-08-24T09:47:13;3.33;;;2.40;;
22904;SDS011;11619;50.140;8.518;2023-08-24T09:49:40;8.77;;;2.60;;
22904;SDS011;11619;50.140;8.518;2023-08-24T09:52:06;4.22;;;2.75;;
22904;SDS011;11619;50.140;8.518;2023-08-24T09:54:36;2.97;;;2.50;;
22904;SDS011;11619;50.140;8.518;2023-08-24T09:57:04;2.67;;;2.35;;
22904;SDS011;11619;50.140;8.518;2023-08-24T09:59:33;4.68;;;2.60;;
22904;SDS011;11619;50.140;8.518;2023-08-24T10:02:01;4.45;;;2.72;;
22904;SDS011;11619;50.140;8.518;2023-08-24T10:04:28;4.07;;;2.63;;
22904;SDS011;11619;50.140;8.518;2023-08-24T10:06:55;3.90;;;2.35;;
22904;SDS011;11619;50.140;8.518;2023-08-24T10:09:27;3.55;;;2.83;;
22904;SDS011;11619;50.140;8.518;2023-08-24T10:11:59;3.58;;;2.33;;
22904;SDS011;11619;50.140;8.518;2023-08-24T10:14:36;4.63;;;2.92;;
22904;SDS011;11619;50.140;8.518;2023-08-24T10:17:18;3.60;;;2.60;;
22904;SDS011;11619;50.140;8.518;2023-08-24T10:19:45;4.05;;;2.63;;
22904;SDS011;11619;50.140;8.518;2023-08-24T10:22:12;4.40;;;2.60;;
22904;SDS011;11619;50.140;8.518;2023-08-24T10:24:39;3.05;;;2.65;;
22904;SDS011;11619;50.140;8.518;2023-08-24T10:27:07;3.50;;;2.65;;
22904;SDS011;11619;50.140;8.518;2023-08-24T10:29:35;4.55;;;2.55;;
22904;SDS011;11619;50.140;8.518;2023-08-24T10:32:01;2.47;;;2.20;;
22904;SDS011;11619;50.140;8.518;2023-08-24T10:34:29;3.67;;;3.03;;
22904;SDS011;11619;50.140;8.518;2023-08-24T10:36:55;4.60;;;2.90;;
22904;SDS011;11619;50.140;8.518;2023-08-24T10:39:29;7.95;;;2.53;;
22904;SDS011;11619;50.140;8.518;2023-08-24T10:41:55;5.68;;;3.05;;
22904;SDS011;11619;50.140;8.518;2023-08-24T10:44:23;4.78;;;2.40;;
22904;SDS011;11619;50.140;8.518;2023-08-24T10:47:11;6.13;;;2.88;;
22904;SDS011;11619;50.140;8.518;2023-08-24T10:49:43;6.40;;;2.75;;
22904;SDS011;11619;50.140;8.518;2023-08-24T10:52:22;3.63;;;2.63;;
22904;SDS011;11619;50.140;8.518;2023-08-24T10:54:50;5.22;;;2.75;;
22904;SDS011;11619;50.140;8.518;2023-08-24T10:57:35;2.90;;;2.50;;
22904;SDS011;11619;50.140;8.518;2023-08-24T11:00:10;7.93;;;3.20;;
22904;SDS011;11619;50.140;8.518;2023-08-24T11:05:20;3.35;;;2.78;;
22904;SDS011;11619;50.140;8.518;2023-08-24T11:10:24;4.18;;;2.97;;
22904;SDS011;11619;50.140;8.518;2023-08-24T11:15:33;4.20;;;3.08;;
22904;SDS011;11619;50.140;8.518;2023-08-24T11:23:15;4.00;;;2.92;;
22904;SDS011;11619;50.140;8.518;2023-08-24T11:25:42;4.07;;;2.83;;
22904;SDS011;11619;50.140;8.518;2023-08-24T11:28:09;13.27;;;2.80;;
22904;SDS011;11619;50.140;8.518;2023-08-24T11:30:35;6.82;;;3.05;;
22904;SDS011;11619;50.140;8.518;2023-08-24T11:33:02;7.60;;;3.10;;
22904;SDS011;11619;50.140;8.518;2023-08-24T11:35:29;5.70;;;3.08;;
22904;SDS011;11619;50.140;8.518;2023-08-24T11:38:01;5.53;;;2.85;;
22904;SDS011;11619;50.140;8.518;2023-08-24T11:40:28;4.38;;;3.17;;
22904;SDS011;11619;50.140;8.518;2023-08-24T11:42:57;4.75;;;3.05;;
22904;SDS011;11619;50.140;8.518;2023-08-24T11:45:24;6.22;;;2.90;;
22904;SDS011;11619;50.140;8.518;2023-08-24T11:47:59;4.55;;;3.00;;
22904;SDS011;11619;50.140;8.518;2023-08-24T11:50:28;3.97;;;3.10;;
22904;SDS011;11619;50.140;8.518;2023-08-24T11:52:55;5.32;;;3.05;;
22904;SDS011;11619;50.140;8.518;2023-08-24T11:55:22;3.47;;;3.17;;
22904;SDS011;11619;50.140;8.518;2023-08-24T11:57:50;6.00;;;2.83;;
22904;SDS011;11619;50.140;8.518;2023-08-24T12:00:20;5.45;;;3.33;;
22904;SDS011;11619;50.140;8.518;2023-08-24T12:02:48;7.90;;;3.35;;
22904;SDS011;11619;50.140;8.518;2023-08-24T12:05:21;4.32;;;3.20;;
22904;SDS011;11619;50.140;8.518;2023-08-24T12:07:49;4.50;;;3.20;;
22904;SDS011;11619;50.140;8.518;2023-08-24T12:10:16;8.02;;;3.42;;
22904;SDS011;11619;50.140;8.518;2023-08-24T12:12:42;4.40;;;3.25;;
22904;SDS011;11619;50.140;8.518;2023-08-24T12:15:14;4.13;;;3.42;;
22904;SDS011;11619;50.140;8.518;2023-08-24T12:17:42;3.40;;;3.10;;
22904;SDS011;11619;50.140;8.518;2023-08-24T12:20:17;4.90;;;3.38;;
22904;SDS011;11619;50.140;8.518;2023-08-24T12:22:49;5.88;;;3.10;;
22904;SDS011;11619;50.140;8.518;2023-08-24T12:25:18;4.10;;;3.10;;
22904;SDS011;11619;50.140;8.518;2023-08-24T12:27:44;6.22;;;3.58;;
22904;SDS011;11619;50.140;8.518;2023-08-24T12:30:11;4.45;;;3.40;;
22904;SDS011;11619;50.140;8.518;2023-08-24T12:32:44;5.82;;;3.38;;
22904;SDS011;11619;50.140;8.518;2023-08-24T12:35:11;5.22;;;3.35;;
22904;SDS011;11619;50.140;8.518;2023-08-24T12:37:40;6.22;;;3.15;;
22904;SDS011;11619;50.140;8.518;2023-08-24T12:40:07;4.82;;;3.47;;
22904;SDS011;11619;50.140;8.518;2023-08-24T12:42:34;5.32;;;3.45;;
22904;SDS011;11619;50.140;8.518;2023-08-24T12:45:04;3.60;;;3.30;;
22904;SDS011;11619;50.140;8.518;2023-08-24T12:47:31;4.50;;;3.50;;
22904;SDS011;11619;50.140;8.518;2023-08-24T12:49:58;3.75;;;3.17;;
22904;SDS011;11619;50.140;8.518;2023-08-24T12:52:25;6.53;;;3.60;;
22904;SDS011;11619;50.140;8.518;2023-08-24T12:54:51;3.90;;;3.40;;
22904;SDS011;11619;50.140;8.518;2023-08-24T12:57:18;5.68;;;3.40;;
22904;SDS011;11619;50.140;8.518;2023-08-24T12:59:44;3.70;;;3.20;;
22904;SDS011;11619;50.140;8.518;2023-08-24T13:02:12;4.18;;;3.35;;
22904;SDS011;11619;50.140;8.518;2023-08-24T13:04:54;8.30;;;3.70;;
22904;SDS011;11619;50.140;8.518;2023-08-24T13:07:21;5.10;;;3.63;;
22904;SDS011;11619;50.140;8.518;2023-08-24T13:09:48;5.55;;;3.47;;
22904;SDS011;11619;50.140;8.518;2023-08-24T13:12:14;4.47;;;3.65;;
22904;SDS011;11619;50.140;8.518;2023-08-24T13:14:40;8.95;;;3.75;;
22904;SDS011;11619;50.140;8.518;2023-08-24T13:17:10;3.75;;;3.35;;
22904;SDS011;11619;50.140;8.518;2023-08-24T13:19:37;4.63;;;3.83;;
22904;SDS011;11619;50.140;8.518;2023-08-24T13:22:04;6.45;;;3.58;;
22904;SDS011;11619;50.140;8.518;2023-08-24T13:24:30;6.15;;;4.18;;
22904;SDS011;11619;50.140;8.518;2023-08-24T13:26:57;4.90;;;3.35;;
22904;SDS011;11619;50.140;8.518;2023-08-24T13:29:23;4.13;;;3.45;;
22904;SDS011;11619;50.140;8.518;2023-08-24T13:31:49;5.45;;;3.90;;
22904;SDS011;11619;50.140;8.518;2023-08-24T13:34:17;6.45;;;3.67;;
22904;SDS011;11619;50.140;8.518;2023-08-24T13:36:43;4.40;;;3.35;;
22904;SDS011;11619;50.140;8.518;2023-08-24T13:39:10;7.90;;;3.75;;
22904;SDS011;11619;50.140;8.518;2023-08-24T13:41:37;4.28;;;3.72;;
22904;SDS011;11619;50.140;8.518;2023-08-24T13:44:03;5.38;;;3.15;;
22904;SDS011;11619;50.140;8.518;2023-08-24T13:46:30;4.93;;;3.45;;
22904;SDS011;11619;50.140;8.518;2023-08-24T13:48:56;3.65;;;3.30;;
22904;SDS011;11619;50.140;8.518;2023-08-24T13:51:23;9.77;;;4.25;;
22904;SDS011;11619;50.140;8.518;2023-08-24T13:53:49;7.97;;;3.88;;
22904;SDS011;11619;50.140;8.518;2023-08-24T13:56:16;9.05;;;3.65;;
22904;SDS011;11619;50.140;8.518;2023-08-24T13:58:42;3.95;;;3.55;;
22904;SDS011;11619;50.140;8.518;2023-08-24T14:01:09;5.18;;;4.13;;
22904;SDS011;11619;50.140;8.518;2023-08-24T14:03:36;3.90;;;3.53;;
22904;SDS011;11619;50.140;8.518;2023-08-24T14:06:04;6.20;;;3.67;;
22904;SDS011;11619;50.140;8.518;2023-08-24T14:08:30;8.75;;;3.30;;
22904;SDS011;11619;50.140;8.518;2023-08-24T14:10:57;3.83;;;3.40;;
22904;SDS011;11619;50.140;8.518;2023-08-24T14:13:23;4.82;;;3.45;;
22904;SDS011;11619;50.140;8.518;2023-08-24T14:15:51;6.15;;;3.78;;
22904;SDS011;11619;50.140;8.518;2023-08-24T14:18:18;5.28;;;3.80;;
22904;SDS011;11619;50.140;8.518;2023-08-24T14:20:45;37.65;;;6.45;;
22904;SDS011;11619;50.140;8.518;2023-08-24T14:23:11;12.45;;;4.60;;
22904;SDS011;11619;50.140;8.518;2023-08-24T14:25:38;6.78;;;4.20;;
22904;SDS011;11619;50.140;8.518;2023-08-24T14:28:04;6.93;;;3.90;;
22904;SDS011;11619;50.140;8.518;2023-08-24T14:30:34;8.85;;;3.70;;
22904;SDS011;11619;50.140;8.518;2023-08-24T14:33:01;5.65;;;3.60;;
22904;SDS011;11619;50.140;8.518;2023-08-24T14:35:27;11.10;;;4.22;;
22904;SDS011;11619;50.140;8.518;2023-08-24T14:37:56;5.72;;;3.85;;
22904;SDS011;11619;50.140;8.518;2023-08-24T14:40:23;6.63;;;3.72;;
22904;SDS011;11619;50.140;8.518;2023-08-24T14:42:49;6.72;;;4.20;;
22904;SDS011;11619;50.140;8.518;2023-08-24T14:45:16;4.75;;;3.53;;
22904;SDS011;11619;50.140;8.518;2023-08-24T14:47:44;6.95;;;3.60;;
22904;SDS011;11619;50.140;8.518;2023-08-24T14:50:11;8.63;;;4.20;;
22904;SDS011;11619;50.140;8.518;2023-08-24T14:52:38;6.25;;;4.30;;
22904;SDS011;11619;50.140;8.518;2023-08-24T14:55:06;6.32;;;4.30;;
22904;SDS011;11619;50.140;8.518;2023-08-24T14:57:34;5.97;;;3.38;;
22904;SDS011;11619;50.140;8.518;2023-08-24T15:00:01;8.95;;;4.13;;
22904;SDS011;11619;50.140;8.518;2023-08-24T15:02:29;6.43;;;3.92;;
22904;SDS011;11619;50.140;8.518;2023-08-24T15:04:56;8.43;;;3.88;;
22904;SDS011;11619;50.140;8.518;2023-08-24T15:07:22;9.23;;;4.05;;